createdAt,value
2023-05-12T00:01:23.837Z,1.67
2023-05-12T00:03:53.828Z,0.47
2023-05-12T00:06:21.517Z,1.50
2023-05-12T00:08:48.797Z,1.67
2023-05-12T00:11:16.067Z,1.45
2023-05-12T00:13:43.505Z,2.03
2023-05-12T00:16:10.766Z,0.82
2023-05-12T00:18:37.924Z,1.92
2023-05-12T00:21:05.296Z,1.70
2023-05-12T00:23:32.633Z,1.50
2023-05-12T00:25:59.992Z,1.15
2023-05-12T00:28:27.298Z,1.25
2023-05-12T00:30:54.630Z,1.80
2023-05-12T00:33:21.904Z,1.70
2023-05-12T00:35:49.001Z,1.80
2023-05-12T00:38:16.142Z,1.48
2023-05-12T00:40:43.379Z,0.82
2023-05-12T00:43:11.616Z,4.20
2023-05-12T00:45:39.405Z,1.85
2023-05-12T00:48:07.816Z,2.45
2023-05-12T00:50:35.462Z,1.67
2023-05-12T00:53:04.186Z,1.45
2023-05-12T00:55:31.736Z,2.78
2023-05-12T00:57:59.813Z,2.75
2023-05-12T01:00:28.646Z,1.65
2023-05-12T01:02:59.353Z,2.30
2023-05-12T01:05:35.296Z,1.88
2023-05-12T01:08:03.592Z,1.90
2023-05-12T01:10:30.838Z,2.17
2023-05-12T01:12:58.393Z,1.95
2023-05-12T01:15:26.195Z,0.65
2023-05-12T01:17:57.611Z,2.38
2023-05-12T01:20:26.975Z,1.77
2023-05-12T01:22:55.727Z,1.35
2023-05-12T01:25:26.996Z,1.02
2023-05-12T01:27:54.667Z,1.88
2023-05-12T01:30:24.721Z,1.63
2023-05-12T01:32:52.847Z,1.52
2023-05-12T01:35:20.413Z,1.52
2023-05-12T01:37:55.801Z,0.98
2023-05-12T01:40:23.186Z,2.83
2023-05-12T01:42:50.674Z,1.08
2023-05-12T01:45:18.930Z,1.58
2023-05-12T01:47:46.853Z,2.40
2023-05-12T01:50:14.232Z,3.05
2023-05-12T01:52:41.617Z,5.55
2023-05-12T01:55:12.498Z,1.48
2023-05-12T01:57:49.874Z,2.60
2023-05-12T02:00:19.656Z,1.15
2023-05-12T02:02:49.246Z,1.60
2023-05-12T02:05:17.511Z,1.42
2023-05-12T02:07:47.597Z,4.90
2023-05-12T02:10:15.026Z,2.05
2023-05-12T02:12:42.351Z,2.05
2023-05-12T02:15:10.537Z,2.55
2023-05-12T02:17:42.690Z,1.30
2023-05-12T02:20:12.341Z,1.35
2023-05-12T02:22:39.855Z,1.98
2023-05-12T02:25:07.774Z,0.90
2023-05-12T02:27:35.845Z,2.00
2023-05-12T02:30:04.489Z,2.42
2023-05-12T02:32:33.805Z,2.53
2023-05-12T02:35:01.365Z,2.17
2023-05-12T02:37:29.437Z,1.48
2023-05-12T02:39:56.966Z,1.30
2023-05-12T02:42:25.111Z,6.95
2023-05-12T02:44:52.430Z,1.60
2023-05-12T02:47:19.725Z,0.98
2023-05-12T02:49:47.129Z,2.67
2023-05-12T02:52:15.042Z,2.67
2023-05-12T02:54:42.292Z,1.77
2023-05-12T02:57:10.851Z,3.15
2023-05-12T02:59:38.139Z,2.05
2023-05-12T03:02:05.662Z,1.00
2023-05-12T03:04:33.557Z,2.42
2023-05-12T03:07:00.981Z,2.00
2023-05-12T03:09:29.240Z,1.15
2023-05-12T03:11:56.625Z,3.50
2023-05-12T03:14:24.174Z,0.93
2023-05-12T03:16:51.512Z,1.60
2023-05-12T03:19:18.774Z,1.17
2023-05-12T03:21:46.220Z,1.70
2023-05-12T03:24:13.807Z,2.40
2023-05-12T03:26:41.138Z,2.92
2023-05-12T03:29:09.031Z,1.50
2023-05-12T03:31:36.637Z,1.85
2023-05-12T03:34:04.093Z,1.42
2023-05-12T03:36:31.931Z,1.48
2023-05-12T03:38:59.279Z,2.90
2023-05-12T03:41:26.765Z,2.72
2023-05-12T03:43:54.243Z,2.25
2023-05-12T03:46:21.603Z,1.38
2023-05-12T03:48:48.923Z,2.28
2023-05-12T03:51:16.156Z,3.75
2023-05-12T03:53:46.296Z,2.60
2023-05-12T03:56:15.657Z,4.13
2023-05-12T03:58:43.511Z,2.13
2023-05-12T04:01:10.880Z,2.05
2023-05-12T04:03:38.500Z,1.52
2023-05-12T04:06:06.032Z,2.17
2023-05-12T04:08:33.641Z,2.40
2023-05-12T04:11:02.325Z,1.65
2023-05-12T04:13:31.888Z,1.85
2023-05-12T04:16:00.424Z,1.33
2023-05-12T04:18:28.924Z,1.77
2023-05-12T04:20:56.913Z,1.90
2023-05-12T04:23:24.641Z,1.75
2023-05-12T04:25:51.953Z,1.42
2023-05-12T04:28:19.185Z,1.52
2023-05-12T04:30:46.675Z,1.38
2023-05-12T04:33:14.038Z,0.80
2023-05-12T04:35:41.824Z,1.40
2023-05-12T04:38:11.713Z,2.50
2023-05-12T04:40:39.089Z,1.60
2023-05-12T04:43:06.412Z,2.30
2023-05-12T04:45:33.833Z,1.23
2023-05-12T04:48:01.241Z,2.50
2023-05-12T04:50:28.484Z,0.95
2023-05-12T04:52:55.904Z,1.35
2023-05-12T04:55:23.601Z,1.98
2023-05-12T04:57:50.928Z,1.67
2023-05-12T05:00:18.452Z,1.13
2023-05-12T05:02:47.477Z,2.42
2023-05-12T05:05:15.672Z,1.40
2023-05-12T05:07:43.003Z,1.70
2023-05-12T05:10:10.924Z,1.30
2023-05-12T05:12:39.881Z,1.42
2023-05-12T05:15:09.781Z,1.10
2023-05-12T05:17:37.261Z,2.05
2023-05-12T05:20:11.762Z,3.53
2023-05-12T05:22:39.874Z,1.20
2023-05-12T05:25:09.378Z,2.05
2023-05-12T05:27:38.774Z,1.35
2023-05-12T05:30:09.310Z,1.83
2023-05-12T05:32:40.145Z,1.45
2023-05-12T05:35:08.418Z,1.65
2023-05-12T05:37:39.465Z,1.88
2023-05-12T05:40:07.782Z,1.88
2023-05-12T05:42:35.157Z,1.45
2023-05-12T05:45:02.683Z,3.35
2023-05-12T05:47:31.548Z,1.13
2023-05-12T05:49:59.252Z,2.35
2023-05-12T05:52:26.690Z,1.80
2023-05-12T05:54:53.971Z,1.10
2023-05-12T05:57:22.759Z,1.33
2023-05-12T05:59:50.522Z,1.17
2023-05-12T06:02:18.033Z,1.17
2023-05-12T06:04:45.347Z,1.65
2023-05-12T06:07:12.659Z,1.70
2023-05-12T06:09:39.914Z,1.92
2023-05-12T06:12:07.745Z,1.67
2023-05-12T06:14:34.990Z,2.15
2023-05-12T06:17:02.368Z,2.47
2023-05-12T06:19:31.047Z,0.80
2023-05-12T06:21:58.314Z,2.10
2023-05-12T06:24:25.674Z,1.70
2023-05-12T06:26:53.079Z,2.50
2023-05-12T06:29:21.269Z,1.67
2023-05-12T06:31:48.516Z,2.22
2023-05-12T06:34:16.327Z,1.85
2023-05-12T06:36:44.400Z,1.67
2023-05-12T06:39:12.088Z,1.80
2023-05-12T06:41:39.479Z,4.13
2023-05-12T06:44:07.887Z,1.98
2023-05-12T06:46:35.201Z,1.85
2023-05-12T06:49:02.588Z,3.55
2023-05-12T06:51:29.872Z,3.05
2023-05-12T06:53:57.192Z,2.53
2023-05-12T06:56:24.536Z,1.60
2023-05-12T06:58:52.743Z,3.72
2023-05-12T07:01:20.014Z,2.78
2023-05-12T07:03:47.334Z,1.50
2023-05-12T07:06:14.598Z,4.85
2023-05-12T07:08:41.925Z,4.07
2023-05-12T07:11:09.246Z,2.88
2023-05-12T07:13:38.070Z,5.18
2023-05-12T07:16:05.844Z,5.15
2023-05-12T07:18:33.163Z,2.50
2023-05-12T07:21:00.484Z,5.40
2023-05-12T07:23:27.753Z,1.98
2023-05-12T07:25:55.165Z,2.63
2023-05-12T07:28:22.468Z,3.80
2023-05-12T07:30:49.726Z,3.38
2023-05-12T07:33:17.056Z,3.40
2023-05-12T07:35:44.667Z,2.03
2023-05-12T07:38:11.951Z,2.00
2023-05-12T07:40:39.197Z,2.15
2023-05-12T07:43:06.437Z,1.58
2023-05-12T07:45:33.746Z,1.90
2023-05-12T07:48:01.071Z,1.60
2023-05-12T07:50:28.399Z,1.88
2023-05-12T07:52:55.690Z,4.53
2023-05-12T07:55:23.296Z,3.42
2023-05-12T07:57:50.980Z,1.98
2023-05-12T08:00:18.884Z,1.42
2023-05-12T08:02:47.208Z,4.15
2023-05-12T08:05:16.599Z,2.35
2023-05-12T08:07:45.286Z,2.78
2023-05-12T08:10:13.197Z,1.55
2023-05-12T08:12:41.182Z,1.70
2023-05-12T08:15:09.463Z,2.03
2023-05-12T08:17:37.119Z,2.22
2023-05-12T08:20:05.250Z,2.03
2023-05-12T08:22:32.580Z,1.92
2023-05-12T08:24:59.903Z,1.42
2023-05-12T08:27:27.317Z,1.80
2023-05-12T08:29:54.616Z,2.20
2023-05-12T08:32:22.459Z,2.28
2023-05-12T08:34:49.830Z,1.38
2023-05-12T08:37:17.335Z,2.53
2023-05-12T08:39:44.819Z,1.83
2023-05-12T08:42:40.537Z,1.55
2023-05-12T08:45:08.565Z,2.20
2023-05-12T08:47:37.732Z,1.10
2023-05-12T08:50:05.956Z,2.67
2023-05-12T08:52:34.757Z,2.13
2023-05-12T08:55:04.593Z,1.42
2023-05-12T08:57:31.848Z,3.78
2023-05-12T09:00:00.105Z,1.88
2023-05-12T09:02:37.702Z,1.50
2023-05-12T09:05:12.329Z,1.38
2023-05-12T09:07:44.075Z,1.60
2023-05-12T09:12:54.609Z,2.03
2023-05-12T09:15:29.988Z,2.85
2023-05-12T09:17:57.330Z,2.20
2023-05-12T09:20:31.421Z,1.50
2023-05-12T09:23:00.264Z,1.60
2023-05-12T09:25:27.530Z,1.73
2023-05-12T09:27:56.814Z,1.08
2023-05-12T09:30:31.957Z,3.15
2023-05-12T09:33:09.701Z,2.10
2023-05-12T09:35:41.472Z,1.27
2023-05-12T09:38:14.394Z,1.90
2023-05-12T09:40:43.206Z,1.52
2023-05-12T09:43:13.176Z,1.15
2023-05-12T09:45:44.029Z,1.35
2023-05-12T09:48:13.807Z,0.90
2023-05-12T09:50:50.582Z,0.85
2023-05-12T09:53:19.414Z,2.42
2023-05-12T09:55:47.827Z,1.63
2023-05-12T09:58:19.656Z,0.85
2023-05-12T10:03:18.573Z,0.85
2023-05-12T10:05:50.693Z,0.98
2023-05-12T10:08:22.774Z,0.20
2023-05-12T10:10:52.265Z,2.27
2023-05-12T10:13:20.407Z,1.33
2023-05-12T10:15:48.818Z,0.65
2023-05-12T10:18:17.665Z,0.60
2023-05-12T10:20:46.185Z,1.20
2023-05-12T10:23:14.555Z,0.95
2023-05-12T10:25:42.878Z,0.85
2023-05-12T10:28:14.784Z,1.92
2023-05-12T10:30:43.082Z,4.22
2023-05-12T10:33:11.760Z,0.85
2023-05-12T10:35:42.689Z,0.70
2023-05-12T10:38:12.085Z,0.70
2023-05-12T10:41:03.039Z,1.02
2023-05-12T10:43:45.395Z,1.05
2023-05-12T10:46:12.569Z,0.83
2023-05-12T10:49:07.793Z,1.08
2023-05-12T10:51:48.733Z,1.35
2023-05-12T10:54:21.362Z,1.27
2023-05-12T10:56:49.055Z,1.05
2023-05-12T10:59:20.874Z,0.85
2023-05-12T11:02:01.706Z,0.77
2023-05-12T11:04:41.574Z,0.35
2023-05-12T11:07:14.166Z,1.65
2023-05-12T11:09:56.753Z,3.58
2023-05-12T11:12:27.681Z,1.83
2023-05-12T11:14:55.160Z,1.70
2023-05-12T11:17:22.649Z,1.67
2023-05-12T11:19:51.052Z,3.63
2023-05-12T11:22:21.562Z,3.17
2023-05-12T11:24:50.611Z,2.25
2023-05-12T11:27:20.008Z,2.60
2023-05-12T11:29:56.954Z,2.08
2023-05-12T11:32:24.263Z,2.75
2023-05-12T11:34:51.592Z,1.38
2023-05-12T11:37:21.290Z,1.30
2023-05-12T11:39:49.225Z,1.25
2023-05-12T11:42:19.734Z,0.90
2023-05-12T11:44:49.493Z,1.92
2023-05-12T11:47:19.055Z,1.75
2023-05-12T11:49:54.825Z,1.10
2023-05-12T11:52:24.281Z,3.58
2023-05-12T11:54:58.643Z,2.10
2023-05-12T11:57:30.816Z,1.73
2023-05-12T12:00:04.316Z,1.53
2023-05-12T12:02:35.952Z,1.67
2023-05-12T12:05:03.552Z,4.78
2023-05-12T12:07:32.060Z,2.85
2023-05-12T12:10:11.045Z,1.40
2023-05-12T12:12:38.458Z,1.67
2023-05-12T12:15:06.538Z,2.25
2023-05-12T12:17:34.086Z,1.58
2023-05-12T12:20:01.721Z,1.80
2023-05-12T12:22:34.083Z,1.08
2023-05-12T12:25:02.802Z,1.38
2023-05-12T12:27:30.280Z,3.42
2023-05-12T12:29:57.491Z,1.95
2023-05-12T12:32:24.847Z,2.03
2023-05-12T12:34:52.824Z,2.17
2023-05-12T12:37:20.088Z,1.38
2023-05-12T12:39:50.637Z,0.80
2023-05-12T12:42:17.982Z,1.83
2023-05-12T12:44:50.312Z,1.40
2023-05-12T12:47:18.191Z,1.52
2023-05-12T12:49:45.609Z,1.65
2023-05-12T12:52:13.008Z,1.52
2023-05-12T12:54:40.397Z,2.53
2023-05-12T12:57:07.642Z,1.23
2023-05-12T12:59:35.309Z,1.48
2023-05-12T13:02:02.762Z,1.17
2023-05-12T13:04:30.263Z,1.35
2023-05-12T13:06:57.543Z,1.65
2023-05-12T13:09:24.753Z,1.65
2023-05-12T13:11:52.027Z,1.25
2023-05-12T13:14:19.361Z,1.65
2023-05-12T13:16:46.607Z,1.45
2023-05-12T13:19:14.375Z,2.47
2023-05-12T13:21:42.119Z,3.35
2023-05-12T13:24:09.378Z,1.33
2023-05-12T13:26:36.820Z,1.65
2023-05-12T13:29:04.327Z,1.30
2023-05-12T13:31:31.690Z,1.92
2023-05-12T13:33:59.038Z,1.98
2023-05-12T13:36:26.910Z,1.60
2023-05-12T13:38:54.198Z,1.75
2023-05-12T13:41:21.542Z,2.35
2023-05-12T13:43:48.853Z,2.25
2023-05-12T13:46:16.247Z,1.45
2023-05-12T13:48:43.763Z,1.67
2023-05-12T13:51:11.092Z,2.80
2023-05-12T13:53:39.630Z,2.05
2023-05-12T13:56:16.515Z,1.58
2023-05-12T13:58:44.247Z,2.63
2023-05-12T14:01:12.164Z,2.45
2023-05-12T14:03:40.457Z,1.02
2023-05-12T14:06:07.813Z,1.67
2023-05-12T14:08:35.302Z,3.05
2023-05-12T14:11:02.699Z,1.73
2023-05-12T14:13:30.309Z,2.38
2023-05-12T14:15:57.772Z,2.35
2023-05-12T14:18:26.453Z,2.03
2023-05-12T14:20:53.889Z,2.08
2023-05-12T14:23:23.768Z,4.50
2023-05-12T14:25:51.454Z,1.52
2023-05-12T14:28:18.735Z,1.17
2023-05-12T14:30:46.155Z,1.83
2023-05-12T14:33:13.851Z,1.00
2023-05-12T14:35:41.359Z,1.80
2023-05-12T14:38:09.119Z,1.80
2023-05-12T14:40:38.123Z,1.67
2023-05-12T14:43:07.198Z,2.55
2023-05-12T14:45:34.564Z,2.47
2023-05-12T14:48:01.920Z,2.17
2023-05-12T14:50:29.609Z,1.88
2023-05-12T14:52:57.429Z,1.42
2023-05-12T14:55:25.308Z,2.10
2023-05-12T14:57:52.621Z,1.60
2023-05-12T15:00:21.364Z,2.20
2023-05-12T15:02:48.820Z,3.00
2023-05-12T15:05:16.385Z,1.95
2023-05-12T15:07:43.677Z,2.28
2023-05-12T15:10:11.248Z,2.13
2023-05-12T15:12:38.489Z,1.38
2023-05-12T15:15:08.371Z,1.13
2023-05-12T15:17:35.777Z,1.35
2023-05-12T15:20:04.054Z,1.88
2023-05-12T15:22:32.281Z,4.10
2023-05-12T15:24:59.792Z,1.90
2023-05-12T15:27:27.289Z,2.20
2023-05-12T15:29:54.669Z,1.45
2023-05-12T15:32:22.082Z,4.13
2023-05-12T15:34:49.523Z,1.08
2023-05-12T15:37:17.019Z,1.58
2023-05-12T15:39:44.545Z,2.00
2023-05-12T15:42:12.570Z,2.75
2023-05-12T17:12:07.939Z,3.88
2023-05-12T17:16:53.037Z,3.35
2023-05-12T17:19:22.313Z,4.28
2023-05-12T17:33:39.960Z,3.95
2023-05-12T17:36:11.627Z,2.25
2023-05-12T17:41:08.134Z,2.15
2023-05-12T17:43:35.517Z,2.22
2023-05-12T17:46:04.770Z,1.85
2023-05-12T17:48:35.948Z,1.88
2023-05-12T17:51:03.507Z,3.03
2023-05-12T17:53:32.053Z,1.83
2023-05-12T17:55:59.856Z,3.22
2023-05-12T17:58:27.529Z,2.13
2023-05-12T18:00:54.846Z,2.72
2023-05-12T18:03:24.854Z,3.33
2023-05-12T18:05:54.170Z,3.13
2023-05-12T18:08:21.922Z,5.32
2023-05-12T18:10:49.400Z,4.78
2023-05-12T18:13:16.757Z,2.78
2023-05-12T18:15:44.031Z,2.33
2023-05-12T18:18:11.412Z,2.55
2023-05-12T18:20:38.844Z,4.13
2023-05-12T18:23:06.169Z,2.60
2023-05-12T18:25:33.425Z,2.88
2023-05-12T18:28:00.703Z,5.50
2023-05-12T18:30:27.934Z,2.80
2023-05-12T18:32:55.335Z,5.30
2023-05-12T18:35:23.148Z,5.43
2023-05-12T18:37:50.682Z,3.25
2023-05-12T18:40:18.020Z,4.20
2023-05-12T18:42:45.300Z,4.03
2023-05-12T18:45:12.639Z,7.00
2023-05-12T18:47:40.059Z,11.85
2023-05-12T18:50:08.054Z,12.63
2023-05-12T18:52:35.923Z,12.05
2023-05-12T18:55:03.262Z,15.75
2023-05-12T18:57:30.594Z,18.80
2023-05-12T18:59:57.860Z,26.15
2023-05-12T19:02:25.197Z,28.00
2023-05-12T19:04:52.679Z,28.95
2023-05-12T19:07:19.980Z,28.65
2023-05-12T19:09:47.409Z,29.52
2023-05-12T19:12:14.739Z,28.00
2023-05-12T19:14:43.214Z,29.65
2023-05-12T19:17:10.849Z,30.85
2023-05-12T19:19:38.415Z,28.92
2023-05-12T19:22:05.824Z,28.42
2023-05-12T19:24:33.692Z,28.42
2023-05-12T19:27:01.392Z,29.10
2023-05-12T19:29:28.717Z,28.48
2023-05-12T19:31:56.244Z,27.63
2023-05-12T19:34:23.988Z,26.52
2023-05-12T19:36:52.834Z,29.98
2023-05-12T19:39:20.076Z,25.55
2023-05-12T19:41:47.571Z,28.33
2023-05-12T19:44:14.856Z,25.17
2023-05-12T19:46:42.251Z,14.55
2023-05-12T19:49:09.531Z,9.07
2023-05-12T19:51:36.825Z,8.57
2023-05-12T19:54:06.350Z,13.00
2023-05-12T19:56:33.879Z,14.55
2023-05-12T19:59:01.204Z,10.02
2023-05-12T20:01:28.613Z,11.35
2023-05-12T20:03:56.286Z,12.65
2023-05-12T20:06:25.094Z,18.77
2023-05-12T20:08:52.704Z,16.83
2023-05-12T20:11:20.049Z,14.77
2023-05-12T20:13:50.411Z,15.65
2023-05-12T20:16:18.614Z,10.80
2023-05-12T20:18:46.279Z,7.78
2023-05-12T20:21:13.590Z,8.85
2023-05-12T20:23:40.928Z,8.23
2023-05-12T20:26:08.490Z,8.63
2023-05-12T20:28:36.474Z,8.30
2023-05-12T20:31:04.131Z,8.77
2023-05-12T20:33:32.079Z,11.43
2023-05-12T20:35:59.484Z,11.65
2023-05-12T20:38:26.906Z,11.50
2023-05-12T20:40:54.124Z,13.18
2023-05-12T20:43:21.537Z,10.95
2023-05-12T20:45:48.848Z,10.38
2023-05-12T20:48:16.325Z,8.95
2023-05-12T20:50:43.863Z,11.13
2023-05-12T20:53:11.218Z,11.65
2023-05-12T20:55:42.868Z,13.10
2023-05-12T20:58:10.361Z,9.32
2023-05-12T21:00:37.929Z,9.40
2023-05-12T21:03:06.036Z,9.77
2023-05-12T21:05:33.335Z,9.55
2023-05-12T21:08:00.712Z,13.10
2023-05-12T21:10:27.977Z,12.75
2023-05-12T21:12:55.241Z,9.20
2023-05-12T21:15:23.147Z,10.05
2023-05-12T21:17:51.603Z,9.75
2023-05-12T21:20:19.220Z,8.95
2023-05-12T21:22:46.670Z,8.15
2023-05-12T21:25:13.984Z,8.43
2023-05-12T21:27:41.288Z,6.63
2023-05-12T21:30:10.469Z,12.25
2023-05-12T21:32:37.947Z,7.20
2023-05-12T21:35:07.095Z,8.50
2023-05-12T21:37:34.486Z,9.40
2023-05-12T21:40:01.991Z,9.52
2023-05-12T21:42:29.266Z,10.13
2023-05-12T21:44:56.667Z,6.47
2023-05-12T21:47:23.986Z,7.68
2023-05-12T21:49:55.349Z,8.80
2023-05-12T21:52:23.353Z,5.57
2023-05-12T21:54:50.659Z,4.85
2023-05-12T21:57:18.031Z,5.72
2023-05-12T21:59:48.457Z,5.00
2023-05-12T22:02:16.114Z,6.70
2023-05-12T22:04:43.461Z,6.55
2023-05-12T22:07:10.732Z,4.93
2023-05-12T22:09:37.943Z,5.15
2023-05-12T22:12:05.808Z,4.75
2023-05-12T22:14:33.113Z,5.57
2023-05-12T22:17:00.754Z,5.45
2023-05-12T22:19:28.217Z,7.10
2023-05-12T22:21:55.779Z,3.80
2023-05-12T22:24:23.056Z,6.03
2023-05-12T22:26:50.308Z,4.70
2023-05-12T22:29:17.567Z,4.00
2023-05-12T22:31:44.884Z,5.05
2023-05-12T22:34:12.246Z,4.75
2023-05-12T22:36:39.632Z,4.85
2023-05-12T22:39:06.971Z,5.10
2023-05-12T22:41:34.258Z,5.18
2023-05-12T22:44:01.466Z,5.70
2023-05-12T22:46:28.779Z,4.00
2023-05-12T22:48:56.294Z,4.90
2023-05-12T22:51:23.601Z,5.18
2023-05-12T22:53:50.902Z,3.72
2023-05-12T22:56:18.179Z,6.05
2023-05-12T22:58:45.518Z,3.97
2023-05-12T23:01:12.831Z,5.28
2023-05-12T23:03:40.135Z,4.28
2023-05-12T23:06:07.493Z,5.18
2023-05-12T23:08:35.096Z,4.85
2023-05-12T23:11:02.383Z,5.65
2023-05-12T23:13:29.640Z,3.75
2023-05-12T23:15:56.817Z,3.85
2023-05-12T23:18:24.146Z,3.92
2023-05-12T23:20:51.460Z,4.65
2023-05-12T23:23:18.676Z,5.05
2023-05-12T23:25:47.150Z,5.88
2023-05-12T23:28:14.371Z,3.42
2023-05-12T23:30:41.645Z,3.40
2023-05-12T23:33:08.902Z,5.78
2023-05-12T23:35:36.247Z,4.13
2023-05-12T23:38:03.767Z,6.10
2023-05-12T23:40:33.378Z,3.70
2023-05-12T23:43:00.741Z,3.97
2023-05-12T23:45:28.287Z,2.92
2023-05-12T23:47:55.839Z,4.05
2023-05-12T23:50:23.676Z,6.50
2023-05-12T23:52:54.650Z,3.63
2023-05-12T23:55:23.235Z,4.03
2023-05-12T23:57:50.586Z,4.40
